createdAt,value
2019-04-26T00:00:14.975Z,56
2019-04-26T00:00:50.579Z,56
2019-04-26T00:01:26.663Z,56
2019-04-26T00:02:03.145Z,56
2019-04-26T00:02:38.559Z,56
2019-04-26T00:03:14.744Z,56
2019-04-26T00:03:51.188Z,56
2019-04-26T00:04:26.603Z,56
2019-04-26T00:05:02.568Z,56
2019-04-26T00:05:40.251Z,56
2019-04-26T00:06:15.173Z,56
2019-04-26T00:06:50.598Z,56
2019-04-26T00:07:26.575Z,56
2019-04-26T00:08:02.517Z,56
2019-04-26T00:08:38.953Z,56
2019-04-26T00:09:14.583Z,56
2019-04-26T00:09:50.554Z,56
2019-04-26T00:10:26.826Z,56
2019-04-26T00:11:02.617Z,56
2019-04-26T00:11:38.609Z,56
2019-04-26T00:12:15.002Z,56
2019-04-26T00:12:50.900Z,56
2019-04-26T00:13:26.941Z,56
2019-04-26T00:14:02.603Z,56
2019-04-26T00:14:38.574Z,56
2019-04-26T00:15:16.333Z,56
2019-04-26T00:15:50.663Z,56
2019-04-26T00:16:26.572Z,57
2019-04-26T00:17:03.025Z,57
2019-04-26T00:17:39.054Z,57
2019-04-26T00:18:15.258Z,57
2019-04-26T00:18:50.582Z,57
2019-04-26T00:19:27.054Z,57
2019-04-26T00:20:02.533Z,57
2019-04-26T00:20:38.613Z,57
2019-04-26T00:21:16.130Z,57
2019-04-26T00:21:51.111Z,57
2019-04-26T00:22:26.524Z,57
2019-04-26T00:23:02.614Z,57
2019-04-26T00:23:38.925Z,57
2019-04-26T00:24:15.754Z,57
2019-04-26T00:24:50.637Z,57
2019-04-26T00:25:26.580Z,57
2019-04-26T00:26:02.549Z,57
2019-04-26T00:26:38.525Z,57
2019-04-26T00:27:15.379Z,57
2019-04-26T00:27:50.625Z,57
2019-04-26T00:28:26.564Z,58
2019-04-26T00:29:02.531Z,58
2019-04-26T00:29:38.632Z,58
2019-04-26T00:30:15.406Z,58
2019-04-26T00:30:50.560Z,58
2019-04-26T00:31:26.522Z,58
2019-04-26T00:32:02.644Z,58
2019-04-26T00:32:38.575Z,58
2019-04-26T00:33:15.761Z,58
2019-04-26T00:33:50.526Z,58
2019-04-26T00:34:26.608Z,58
2019-04-26T00:35:02.603Z,58
2019-04-26T00:35:48.570Z,58
2019-04-26T00:36:15.355Z,58
2019-04-26T00:36:50.619Z,58
2019-04-26T00:37:26.582Z,58
2019-04-26T00:38:02.556Z,59
2019-04-26T00:38:38.499Z,59
2019-04-26T00:39:15.882Z,59
2019-04-26T00:39:50.560Z,59
2019-04-26T00:40:26.530Z,59
2019-04-26T00:41:02.505Z,59
2019-04-26T00:41:38.618Z,59
2019-04-26T00:42:15.215Z,59
2019-04-26T00:42:50.546Z,59
2019-04-26T00:43:26.515Z,59
2019-04-26T00:44:02.590Z,59
2019-04-26T00:44:38.589Z,59
2019-04-26T00:45:16.645Z,59
2019-04-26T00:45:50.530Z,59
2019-04-26T00:46:26.606Z,59
2019-04-26T00:47:02.555Z,59
2019-04-26T00:47:38.524Z,59
2019-04-26T00:48:15.609Z,59
2019-04-26T00:48:50.597Z,59
2019-04-26T00:49:26.578Z,59
2019-04-26T00:50:02.540Z,59
2019-04-26T00:50:38.492Z,60
2019-04-26T00:51:15.804Z,60
2019-04-26T00:51:50.571Z,60
2019-04-26T00:52:26.526Z,60
2019-04-26T00:53:02.500Z,60
2019-04-26T00:53:38.589Z,60
2019-04-26T00:54:15.725Z,60
2019-04-26T00:54:50.549Z,60
2019-04-26T00:55:26.501Z,60
2019-04-26T00:56:02.591Z,60
2019-04-26T00:56:38.545Z,60
2019-04-26T00:57:16.206Z,60
2019-04-26T00:57:50.485Z,60
2019-04-26T00:58:26.583Z,60
2019-04-26T00:59:02.556Z,61
2019-04-26T00:59:38.554Z,60
2019-04-26T01:00:18.099Z,61
2019-04-26T01:00:50.566Z,61
2019-04-26T01:01:26.534Z,61
2019-04-26T01:02:02.529Z,61
2019-04-26T01:02:38.506Z,61
2019-04-26T01:03:16.877Z,61
2019-04-26T01:03:50.535Z,61
2019-04-26T01:04:26.523Z,61
2019-04-26T01:05:02.571Z,61
2019-04-26T01:05:38.584Z,61
2019-04-26T01:06:17.263Z,61
2019-04-26T01:06:50.532Z,62
2019-04-26T01:07:26.465Z,61
2019-04-26T01:08:02.578Z,62
2019-04-26T01:08:38.567Z,62
2019-04-26T01:09:17.650Z,62
2019-04-26T01:09:50.482Z,62
2019-04-26T01:10:26.583Z,62
2019-04-26T01:11:02.538Z,62
2019-04-26T01:11:38.565Z,62
2019-04-26T01:12:17.518Z,62
2019-04-26T01:12:50.564Z,62
2019-04-26T01:13:26.699Z,62
2019-04-26T01:14:02.511Z,62
2019-04-26T01:14:38.586Z,62
2019-04-26T01:15:21.645Z,62
2019-04-26T01:16:26.939Z,63
2019-04-26T01:17:02.587Z,63
2019-04-26T01:17:38.602Z,63
2019-04-26T01:18:14.520Z,63
2019-04-26T01:18:50.495Z,63
2019-04-26T01:19:27.097Z,63
2019-04-26T01:20:02.546Z,63
2019-04-26T01:20:38.529Z,63
2019-04-26T01:21:14.481Z,63
2019-04-26T01:21:50.622Z,63
2019-04-26T01:22:27.503Z,63
2019-04-26T01:23:02.528Z,63
2019-04-26T01:23:38.487Z,63
2019-04-26T01:24:14.595Z,63
2019-04-26T01:24:50.564Z,64
2019-04-26T01:25:27.665Z,64
2019-04-26T01:26:14.517Z,64
2019-04-26T01:26:50.483Z,64
2019-04-26T01:27:27.488Z,64
2019-04-26T01:28:02.537Z,64
2019-04-26T01:28:38.504Z,64
2019-04-26T01:29:14.480Z,64
2019-04-26T01:29:50.564Z,64
2019-04-26T01:30:26.558Z,64
2019-04-26T01:31:02.506Z,64
2019-04-26T01:31:38.480Z,64
2019-04-26T01:32:14.572Z,64
2019-04-26T01:32:50.543Z,64
2019-04-26T01:33:26.690Z,64
2019-04-26T01:34:02.488Z,64
2019-04-26T01:34:38.565Z,64
2019-04-26T01:35:14.597Z,64
2019-04-26T01:35:50.541Z,64
2019-04-26T01:36:27.017Z,64
2019-04-26T01:37:02.575Z,64
2019-04-26T01:37:38.522Z,64
2019-04-26T01:38:14.501Z,65
2019-04-26T01:38:50.473Z,65
2019-04-26T01:39:26.547Z,65
2019-04-26T01:40:02.534Z,65
2019-04-26T01:40:38.492Z,65
2019-04-26T01:41:14.481Z,65
2019-04-26T01:41:50.545Z,65
2019-04-26T01:42:26.890Z,65
2019-04-26T01:43:02.490Z,65
2019-04-26T01:43:38.450Z,65
2019-04-26T01:44:14.540Z,65
2019-04-26T01:44:50.523Z,65
2019-04-26T01:45:26.484Z,65
2019-04-26T01:46:02.453Z,65
2019-04-26T01:46:38.568Z,65
2019-04-26T01:47:14.524Z,65
2019-04-26T01:47:50.491Z,65
2019-04-26T01:48:27.615Z,65
2019-04-26T01:49:02.547Z,65
2019-04-26T01:49:38.514Z,65
2019-04-26T01:50:14.472Z,65
2019-04-26T01:50:50.460Z,65
2019-04-26T01:51:27.166Z,65
2019-04-26T01:52:02.556Z,65
2019-04-26T01:52:38.479Z,65
2019-04-26T01:53:14.450Z,65
2019-04-26T01:53:50.543Z,65
2019-04-26T01:54:27.548Z,65
2019-04-26T01:55:02.500Z,65
2019-04-26T01:55:38.438Z,65
2019-04-26T01:56:14.535Z,65
2019-04-26T01:56:50.519Z,65
2019-04-26T01:57:27.496Z,65
2019-04-26T01:58:02.443Z,65
2019-04-26T01:58:38.522Z,65
2019-04-26T01:59:14.504Z,65
2019-04-26T01:59:50.484Z,65
2019-04-26T02:00:27.298Z,65
2019-04-26T02:01:02.521Z,65
2019-04-26T02:01:38.545Z,65
2019-04-26T02:02:14.461Z,65
2019-04-26T02:02:50.545Z,65
2019-04-26T02:03:27.525Z,65
2019-04-26T02:04:02.503Z,65
2019-04-26T02:04:38.480Z,65
2019-04-26T02:05:14.562Z,65
2019-04-26T02:05:50.527Z,65
2019-04-26T02:06:35.397Z,65
2019-04-26T02:07:02.501Z,65
2019-04-26T02:07:38.553Z,65
2019-04-26T02:08:14.580Z,65
2019-04-26T02:08:50.500Z,65
2019-04-26T02:09:26.882Z,65
2019-04-26T02:10:02.562Z,65
2019-04-26T02:10:38.516Z,65
2019-04-26T02:11:14.490Z,65
2019-04-26T02:11:50.454Z,65
2019-04-26T02:12:27.256Z,66
2019-04-26T02:13:02.517Z,66
2019-04-26T02:13:38.473Z,66
2019-04-26T02:14:14.461Z,66
2019-04-26T02:14:50.544Z,66
2019-04-26T02:15:27.650Z,66
2019-04-26T02:16:02.482Z,66
2019-04-26T02:16:38.442Z,66
2019-04-26T02:17:14.563Z,66
2019-04-26T02:17:50.531Z,66
2019-04-26T02:18:27.571Z,66
2019-04-26T02:19:02.455Z,66
2019-04-26T02:19:38.541Z,66
2019-04-26T02:20:14.510Z,66
2019-04-26T02:20:50.486Z,66
2019-04-26T02:21:28.182Z,66
2019-04-26T02:22:02.544Z,66
2019-04-26T02:22:38.522Z,67
2019-04-26T02:23:14.466Z,66
2019-04-26T02:23:50.465Z,66
2019-04-26T02:24:27.826Z,67
2019-04-26T02:25:02.519Z,67
2019-04-26T02:25:38.484Z,67
2019-04-26T02:26:14.435Z,67
2019-04-26T02:26:50.528Z,67
2019-04-26T02:27:26.796Z,67
2019-04-26T02:28:02.471Z,67
2019-04-26T02:28:38.444Z,67
2019-04-26T02:29:14.591Z,67
2019-04-26T02:29:50.501Z,67
2019-04-26T02:30:32.481Z,67
2019-04-26T02:31:02.454Z,67
2019-04-26T02:31:38.525Z,67
2019-04-26T02:32:14.553Z,67
2019-04-26T02:32:50.486Z,68
2019-04-26T02:33:31.383Z,67
2019-04-26T02:34:02.528Z,68
2019-04-26T02:34:50.537Z,68
2019-04-26T02:35:31.827Z,68
2019-04-26T02:36:02.515Z,68
2019-04-26T02:36:59.278Z,68
2019-04-26T02:37:50.500Z,68
2019-04-26T02:38:33.305Z,68
2019-04-26T02:39:02.456Z,68
2019-04-26T02:39:38.556Z,68
2019-04-26T02:40:14.513Z,68
2019-04-26T02:40:50.454Z,68
2019-04-26T02:41:31.962Z,68
2019-04-26T02:42:02.551Z,68
2019-04-26T02:42:38.679Z,68
2019-04-26T02:43:14.468Z,68
2019-04-26T02:43:50.434Z,68
2019-04-26T02:44:32.352Z,68
2019-04-26T02:45:02.617Z,68
2019-04-26T02:45:38.887Z,68
2019-04-26T02:46:14.440Z,68
2019-04-26T02:46:50.504Z,68
2019-04-26T02:47:32.561Z,68
2019-04-26T02:48:02.478Z,68
2019-04-26T02:48:38.536Z,68
2019-04-26T02:49:14.543Z,68
2019-04-26T02:49:50.477Z,68
2019-04-26T02:50:33.289Z,68
2019-04-26T02:51:02.540Z,68
2019-04-26T02:51:38.878Z,68
2019-04-26T02:52:14.486Z,68
2019-04-26T02:52:50.454Z,68
2019-04-26T02:53:32.928Z,68
2019-04-26T02:54:02.562Z,68
2019-04-26T02:54:38.912Z,68
2019-04-26T02:55:14.532Z,68
2019-04-26T02:55:50.558Z,69
2019-04-26T02:56:29.666Z,69
2019-04-26T02:57:02.549Z,69
2019-04-26T02:57:39.626Z,69
2019-04-26T02:58:14.661Z,69
2019-04-26T02:58:50.495Z,69
2019-04-26T02:59:28.212Z,69
2019-04-26T03:00:02.503Z,69
2019-04-26T03:00:39.713Z,69
2019-04-26T03:01:14.503Z,69
2019-04-26T03:01:50.465Z,69
2019-04-26T03:02:26.511Z,69
2019-04-26T03:03:02.558Z,69
2019-04-26T03:03:40.206Z,69
2019-04-26T03:04:14.465Z,69
2019-04-26T03:04:50.454Z,69
2019-04-26T03:05:26.516Z,69
2019-04-26T03:06:02.504Z,69
2019-04-26T03:06:43.110Z,69
2019-04-26T03:07:14.453Z,69
2019-04-26T03:07:50.519Z,69
2019-04-26T03:08:26.501Z,69
2019-04-26T03:09:02.468Z,69
2019-04-26T03:09:39.602Z,69
2019-04-26T03:10:14.519Z,69
2019-04-26T03:10:50.491Z,69
2019-04-26T03:11:26.500Z,69
2019-04-26T03:12:02.476Z,69
2019-04-26T03:12:40.084Z,69
2019-04-26T03:13:14.510Z,69
2019-04-26T03:13:50.513Z,69
2019-04-26T03:14:26.426Z,69
2019-04-26T03:15:14.860Z,69
2019-04-26T03:16:14.449Z,69
2019-04-26T03:16:50.407Z,69
2019-04-26T03:17:26.520Z,69
2019-04-26T03:18:02.488Z,69
2019-04-26T03:18:42.962Z,69
2019-04-26T03:19:14.459Z,69
2019-04-26T03:19:50.506Z,69
2019-04-26T03:20:26.474Z,69
2019-04-26T03:21:02.465Z,69
2019-04-26T03:21:39.811Z,69
2019-04-26T03:22:14.505Z,69
2019-04-26T03:22:50.519Z,69
2019-04-26T03:23:58.409Z,69
2019-04-26T03:24:02.433Z,69
2019-04-26T03:24:42.774Z,69
2019-04-26T03:25:14.472Z,69
2019-04-26T03:25:50.432Z,69
2019-04-26T03:26:26.429Z,69
2019-04-26T03:27:02.518Z,69
2019-04-26T03:27:43.737Z,69
2019-04-26T03:28:14.431Z,69
2019-04-26T03:28:50.394Z,69
2019-04-26T03:29:26.556Z,69
2019-04-26T03:30:23.567Z,69
2019-04-26T03:30:53.410Z,69
2019-04-26T03:31:55.923Z,69
2019-04-26T03:32:26.467Z,69
2019-04-26T03:33:03.155Z,69
2019-04-26T03:33:54.589Z,69
2019-04-26T03:34:56.152Z,69
2019-04-26T03:35:26.682Z,69
2019-04-26T03:36:02.448Z,69
2019-04-26T03:36:44.681Z,70
2019-04-26T03:37:22.230Z,70
2019-04-26T03:38:26.517Z,70
2019-04-26T03:39:02.481Z,70
2019-04-26T03:39:44.472Z,70
2019-04-26T03:40:14.430Z,70
2019-04-26T03:40:50.530Z,70
2019-04-26T03:41:26.476Z,70
2019-04-26T03:42:02.466Z,70
2019-04-26T03:42:44.040Z,71
2019-04-26T03:43:14.535Z,71
2019-04-26T03:43:50.463Z,71
2019-04-26T03:44:26.456Z,71
2019-04-26T03:45:02.415Z,71
2019-04-26T03:45:44.214Z,71
2019-04-26T03:46:14.482Z,71
2019-04-26T03:46:50.487Z,71
2019-04-26T03:47:26.428Z,71
2019-04-26T03:48:02.529Z,71
2019-04-26T03:48:44.529Z,71
2019-04-26T03:49:14.558Z,71
2019-04-26T03:49:54.802Z,71
2019-04-26T03:50:26.503Z,71
2019-04-26T03:51:02.470Z,71
2019-04-26T03:51:43.034Z,71
2019-04-26T03:52:14.415Z,71
2019-04-26T03:52:50.508Z,71
2019-04-26T03:53:26.476Z,72
2019-04-26T03:54:02.494Z,72
2019-04-26T03:54:42.674Z,72
2019-04-26T03:55:14.492Z,72
2019-04-26T03:55:50.458Z,72
2019-04-26T03:56:26.438Z,72
2019-04-26T03:57:02.433Z,72
2019-04-26T03:57:43.958Z,72
2019-04-26T03:58:14.468Z,73
2019-04-26T03:58:50.471Z,72
2019-04-26T03:59:26.393Z,73
2019-04-26T04:00:02.547Z,73
2019-04-26T04:00:44.691Z,73
2019-04-26T04:01:14.435Z,73
2019-04-26T04:01:50.410Z,74
2019-04-26T04:02:26.510Z,73
2019-04-26T04:03:02.449Z,73
2019-04-26T04:03:47.292Z,74
2019-04-26T04:04:14.388Z,74
2019-04-26T04:04:50.502Z,74
2019-04-26T04:05:26.459Z,74
2019-04-26T04:06:02.412Z,74
2019-04-26T04:07:05.357Z,74
2019-04-26T04:07:52.101Z,74
2019-04-26T04:08:26.465Z,74
2019-04-26T04:09:02.390Z,74
2019-04-26T04:09:42.825Z,74
2019-04-26T04:10:14.460Z,74
2019-04-26T04:10:50.439Z,74
2019-04-26T04:11:26.593Z,74
2019-04-26T04:12:12.764Z,74
2019-04-26T04:12:44.343Z,74
2019-04-26T04:13:14.444Z,74
2019-04-26T04:13:52.351Z,74
2019-04-26T04:14:27.079Z,74
2019-04-26T04:15:02.441Z,75
2019-04-26T04:15:43.772Z,75
2019-04-26T04:16:14.485Z,75
2019-04-26T04:16:50.483Z,75
2019-04-26T04:17:26.458Z,75
2019-04-26T04:18:02.435Z,75
2019-04-26T04:18:43.371Z,75
2019-04-26T04:19:14.463Z,75
2019-04-26T04:19:50.450Z,75
2019-04-26T04:20:26.497Z,75
2019-04-26T04:21:02.524Z,75
2019-04-26T04:21:43.005Z,75
2019-04-26T04:22:14.427Z,75
2019-04-26T04:22:50.397Z,75
2019-04-26T04:23:26.600Z,75
2019-04-26T04:24:02.472Z,76
2019-04-26T04:24:44.893Z,76
2019-04-26T04:25:14.492Z,75
2019-04-26T04:25:50.481Z,76
2019-04-26T04:26:26.468Z,76
2019-04-26T04:27:02.454Z,76
2019-04-26T04:27:44.070Z,76
2019-04-26T04:28:14.497Z,76
2019-04-26T04:28:50.506Z,76
2019-04-26T04:29:52.500Z,76
2019-04-26T04:30:02.446Z,76
2019-04-26T04:30:43.935Z,76
2019-04-26T04:31:14.456Z,76
2019-04-26T04:31:50.425Z,76
2019-04-26T04:32:26.406Z,76
2019-04-26T04:33:02.538Z,76
2019-04-26T04:33:43.067Z,76
2019-04-26T04:34:14.545Z,75
2019-04-26T04:34:50.395Z,75
2019-04-26T04:35:26.475Z,75
2019-04-26T04:36:02.462Z,75
2019-04-26T04:36:38.442Z,75
2019-04-26T04:37:14.400Z,75
2019-04-26T04:38:10.060Z,75
2019-04-26T04:39:13.616Z,75
2019-04-26T04:40:14.465Z,75
2019-04-26T04:40:50.454Z,75
2019-04-26T04:41:26.415Z,75
2019-04-26T04:42:02.376Z,75
2019-04-26T04:42:38.664Z,75
2019-04-26T04:43:14.639Z,75
2019-04-26T04:43:53.023Z,75
2019-04-26T04:44:26.867Z,75
2019-04-26T04:45:02.900Z,75
2019-04-26T04:45:38.681Z,75
2019-04-26T04:46:15.073Z,75
2019-04-26T04:46:54.227Z,75
2019-04-26T04:47:31.611Z,74
2019-04-26T04:48:02.445Z,74
2019-04-26T04:48:38.404Z,74
2019-04-26T04:49:14.381Z,74
2019-04-26T04:49:53.181Z,73
2019-04-26T04:50:26.449Z,73
2019-04-26T04:51:02.429Z,72
2019-04-26T04:51:38.400Z,72
2019-04-26T04:52:14.456Z,72
2019-04-26T04:52:52.425Z,71
2019-04-26T04:53:26.629Z,71
2019-04-26T04:54:02.363Z,70
2019-04-26T04:54:38.453Z,70
2019-04-26T04:55:14.421Z,70
2019-04-26T04:55:51.983Z,70
2019-04-26T04:56:26.382Z,69
2019-04-26T04:57:02.464Z,69
2019-04-26T04:57:38.422Z,69
2019-04-26T04:58:14.397Z,69
2019-04-26T04:58:50.718Z,68
2019-04-26T04:59:26.434Z,68
2019-04-26T05:00:02.423Z,68
2019-04-26T05:00:38.406Z,68
2019-04-26T05:01:14.354Z,68
2019-04-26T05:01:50.907Z,68
2019-04-26T05:02:26.409Z,67
2019-04-26T05:03:02.414Z,68
2019-04-26T05:03:38.475Z,68
2019-04-26T05:04:14.450Z,68
2019-04-26T05:04:51.589Z,68
2019-04-26T05:05:26.366Z,68
2019-04-26T05:06:08.412Z,68
2019-04-26T05:06:38.438Z,68
2019-04-26T05:07:14.404Z,68
2019-04-26T05:07:51.272Z,68
2019-04-26T05:08:26.469Z,68
2019-04-26T05:09:02.441Z,68
2019-04-26T05:09:38.408Z,69
2019-04-26T05:10:14.385Z,69
2019-04-26T05:10:50.490Z,69
2019-04-26T05:11:26.462Z,69
2019-04-26T05:12:02.425Z,69
2019-04-26T05:12:38.366Z,69
2019-04-26T05:13:14.450Z,69
2019-04-26T05:13:50.528Z,69
2019-04-26T05:14:26.404Z,69
2019-04-26T05:15:02.391Z,69
2019-04-26T05:15:38.450Z,69
2019-04-26T05:16:14.446Z,69
2019-04-26T05:16:51.055Z,69
2019-04-26T05:17:26.365Z,69
2019-04-26T05:18:02.450Z,69
2019-04-26T05:18:38.434Z,68
2019-04-26T05:19:14.387Z,68
2019-04-26T05:19:51.194Z,68
2019-04-26T05:20:26.440Z,68
2019-04-26T05:21:02.425Z,67
2019-04-26T05:21:38.403Z,67
2019-04-26T05:22:14.364Z,67
2019-04-26T05:22:51.656Z,67
2019-04-26T05:23:26.415Z,66
2019-04-26T05:24:02.440Z,66
2019-04-26T05:24:38.364Z,66
2019-04-26T05:25:14.446Z,66
2019-04-26T05:25:51.364Z,66
2019-04-26T05:26:26.413Z,66
2019-04-26T05:27:02.348Z,66
2019-04-26T05:27:38.447Z,66
2019-04-26T05:28:14.412Z,66
2019-04-26T05:28:50.410Z,66
2019-04-26T05:29:26.371Z,66
2019-04-26T05:30:02.490Z,65
2019-04-26T05:30:38.410Z,65
2019-04-26T05:31:14.368Z,65
2019-04-26T05:31:54.005Z,65
2019-04-26T05:32:26.440Z,65
2019-04-26T05:33:02.403Z,65
2019-04-26T05:33:38.383Z,65
2019-04-26T05:34:14.347Z,65
2019-04-26T05:35:02.341Z,65
2019-04-26T05:35:38.423Z,65
2019-04-26T05:36:14.406Z,65
2019-04-26T05:36:51.090Z,65
2019-04-26T05:37:26.349Z,64
2019-04-26T05:38:02.457Z,64
2019-04-26T05:38:38.407Z,64
2019-04-26T05:39:14.376Z,64
2019-04-26T05:39:51.453Z,63
2019-04-26T05:40:26.455Z,63
2019-04-26T05:41:02.416Z,63
2019-04-26T05:41:38.378Z,63
2019-04-26T05:42:14.330Z,63
2019-04-26T05:42:51.544Z,63
2019-04-26T05:43:26.390Z,63
2019-04-26T05:44:02.361Z,63
2019-04-26T05:44:38.344Z,63
2019-04-26T05:45:14.421Z,62
2019-04-26T05:45:51.737Z,63
2019-04-26T05:46:26.357Z,63
2019-04-26T05:47:02.333Z,62
2019-04-26T05:47:38.415Z,62
2019-04-26T05:48:14.385Z,62
2019-04-26T05:48:52.242Z,62
2019-04-26T05:49:26.328Z,62
2019-04-26T05:50:03.007Z,62
2019-04-26T05:50:38.383Z,62
2019-04-26T05:51:14.356Z,63
2019-04-26T05:51:52.278Z,63
2019-04-26T05:52:26.415Z,62
2019-04-26T05:53:02.449Z,62
2019-04-26T05:53:38.359Z,62
2019-04-26T05:54:14.313Z,62
2019-04-26T05:54:52.548Z,62
2019-04-26T05:55:26.373Z,62
2019-04-26T05:56:03.053Z,62
2019-04-26T05:56:38.312Z,62
2019-04-26T05:57:14.422Z,62
2019-04-26T05:57:52.848Z,62
2019-04-26T05:58:26.353Z,62
2019-04-26T05:59:03.642Z,62
2019-04-26T05:59:38.409Z,62
2019-04-26T06:00:14.376Z,61
2019-04-26T06:00:53.616Z,61
2019-04-26T06:01:26.439Z,61
2019-04-26T06:02:02.424Z,61
2019-04-26T06:02:38.365Z,61
2019-04-26T06:03:14.343Z,61
2019-04-26T06:03:52.601Z,61
2019-04-26T06:04:26.405Z,61
2019-04-26T06:05:02.361Z,61
2019-04-26T06:05:38.332Z,62
2019-04-26T06:06:14.419Z,62
2019-04-26T06:06:53.374Z,62
2019-04-26T06:07:26.379Z,62
2019-04-26T06:08:03.508Z,62
2019-04-26T06:08:38.434Z,62
2019-04-26T06:09:14.393Z,62
2019-04-26T06:09:53.045Z,62
2019-04-26T06:10:26.340Z,62
2019-04-26T06:11:03.232Z,62
2019-04-26T06:11:38.386Z,62
2019-04-26T06:12:14.365Z,62
2019-04-26T06:12:52.724Z,62
2019-04-26T06:13:26.419Z,62
2019-04-26T06:14:02.560Z,62
2019-04-26T06:14:38.367Z,62
2019-04-26T06:15:14.340Z,62
2019-04-26T06:15:53.103Z,62
2019-04-26T06:16:26.427Z,62
2019-04-26T06:17:02.363Z,62
2019-04-26T06:17:38.351Z,62
2019-04-26T06:18:14.407Z,62
2019-04-26T06:18:53.349Z,61
2019-04-26T06:19:26.343Z,61
2019-04-26T06:20:03.179Z,61
2019-04-26T06:20:38.416Z,61
2019-04-26T06:21:14.369Z,61
2019-04-26T06:21:53.530Z,61
2019-04-26T06:22:26.335Z,61
2019-04-26T06:23:02.602Z,61
2019-04-26T06:23:38.387Z,61
2019-04-26T06:24:14.336Z,61
2019-04-26T06:24:50.324Z,61
2019-04-26T06:25:26.408Z,61
2019-04-26T06:26:05.021Z,61
2019-04-26T06:26:38.351Z,61
2019-04-26T06:27:14.889Z,61
2019-04-26T06:27:50.425Z,61
2019-04-26T06:28:26.368Z,60
2019-04-26T06:29:03.544Z,60
2019-04-26T06:29:38.326Z,60
2019-04-26T06:30:14.419Z,60
2019-04-26T06:30:50.388Z,61
2019-04-26T06:31:26.333Z,61
2019-04-26T06:32:03.113Z,60
2019-04-26T06:32:38.738Z,60
2019-04-26T06:33:15.511Z,61
2019-04-26T06:33:50.341Z,60
2019-04-26T06:34:26.303Z,60
2019-04-26T06:35:03.498Z,60
2019-04-26T06:35:38.360Z,60
2019-04-26T06:36:14.633Z,60
2019-04-26T06:36:50.293Z,60
2019-04-26T06:37:26.379Z,60
2019-04-26T06:38:02.400Z,60
2019-04-26T06:38:44.570Z,60
2019-04-26T06:39:14.289Z,59
2019-04-26T06:39:50.381Z,59
2019-04-26T06:40:26.354Z,59
2019-04-26T06:41:03.082Z,59
2019-04-26T06:41:38.290Z,59
2019-04-26T06:42:14.376Z,59
2019-04-26T06:42:50.374Z,59
2019-04-26T06:43:38.360Z,59
2019-04-26T06:44:14.308Z,60
2019-04-26T06:44:50.315Z,60
2019-04-26T06:45:26.374Z,59
2019-04-26T06:46:03.240Z,60
2019-04-26T06:46:38.316Z,59
2019-04-26T06:47:14.292Z,59
2019-04-26T06:47:50.385Z,59
2019-04-26T06:48:26.348Z,59
2019-04-26T06:49:03.365Z,58
2019-04-26T06:49:38.285Z,58
2019-04-26T06:50:15.537Z,58
2019-04-26T06:50:50.374Z,57
2019-04-26T06:51:26.312Z,56
2019-04-26T06:52:14.313Z,55
2019-04-26T06:52:50.326Z,56
2019-04-26T06:53:26.374Z,55
2019-04-26T06:54:03.436Z,55
2019-04-26T06:54:38.311Z,54
2019-04-26T06:55:14.286Z,54
2019-04-26T06:55:50.380Z,55
2019-04-26T06:56:26.334Z,54
2019-04-26T06:57:15.425Z,54
2019-04-26T06:58:14.375Z,54
2019-04-26T06:58:50.327Z,54
2019-04-26T06:59:37.195Z,55
2019-04-26T07:00:02.903Z,55
2019-04-26T07:00:50.262Z,55
2019-04-26T07:01:26.359Z,55
2019-04-26T07:02:03.427Z,55
2019-04-26T07:02:38.307Z,56
2019-04-26T07:03:14.295Z,56
2019-04-26T07:03:50.362Z,56
2019-04-26T07:04:26.334Z,55
2019-04-26T07:05:03.440Z,54
2019-04-26T07:05:38.384Z,54
2019-04-26T07:06:14.357Z,53
2019-04-26T07:06:50.320Z,53
2019-04-26T07:07:26.301Z,53
2019-04-26T07:08:05.266Z,53
2019-04-26T07:08:38.388Z,52
2019-04-26T07:09:14.330Z,53
2019-04-26T07:09:50.293Z,52
2019-04-26T07:10:26.409Z,52
2019-04-26T07:11:03.431Z,52
2019-04-26T07:11:38.312Z,53
2019-04-26T07:12:14.301Z,51
2019-04-26T07:12:50.372Z,51
2019-04-26T07:13:26.339Z,51
2019-04-26T07:14:03.228Z,52
2019-04-26T07:14:38.282Z,52
2019-04-26T07:15:22.079Z,52
2019-04-26T07:16:26.307Z,51
2019-04-26T07:17:03.039Z,50
2019-04-26T07:17:38.377Z,50
2019-04-26T07:18:14.344Z,50
2019-04-26T07:18:50.315Z,50
2019-04-26T07:19:26.291Z,49
2019-04-26T07:20:06.162Z,49
2019-04-26T07:20:38.366Z,49
2019-04-26T07:21:14.856Z,49
2019-04-26T07:21:50.340Z,49
2019-04-26T07:22:36.159Z,50
2019-04-26T07:23:03.563Z,50
2019-04-26T07:23:38.293Z,50
2019-04-26T07:24:14.279Z,50
2019-04-26T07:24:50.374Z,50
2019-04-26T07:25:26.336Z,50
2019-04-26T07:26:02.311Z,50
2019-04-26T07:26:38.288Z,49
2019-04-26T07:27:14.359Z,49
2019-04-26T07:28:07.660Z,50
2019-04-26T07:29:04.905Z,50
2019-04-26T07:29:38.373Z,50
2019-04-26T07:30:14.405Z,50
2019-04-26T07:30:50.329Z,50
2019-04-26T07:31:26.265Z,49
2019-04-26T07:32:03.732Z,49
2019-04-26T07:32:38.315Z,49
2019-04-26T07:33:14.293Z,49
2019-04-26T07:33:50.260Z,49
2019-04-26T07:34:26.349Z,49
2019-04-26T07:35:04.469Z,49
2019-04-26T07:35:38.348Z,49
2019-04-26T07:36:14.276Z,49
2019-04-26T07:36:50.367Z,49
2019-04-26T07:37:26.314Z,49
2019-04-26T07:38:03.172Z,50
2019-04-26T07:38:38.262Z,50
2019-04-26T07:39:21.125Z,49
2019-04-26T07:39:50.331Z,49
2019-04-26T07:40:26.302Z,49
2019-04-26T07:41:03.506Z,49
2019-04-26T07:41:38.345Z,49
2019-04-26T07:42:14.324Z,48
2019-04-26T07:42:50.307Z,48
2019-04-26T07:43:26.253Z,49
2019-04-26T07:44:04.120Z,49
2019-04-26T07:44:38.309Z,48
2019-04-26T07:45:14.291Z,48
2019-04-26T07:45:50.274Z,47
2019-04-26T07:46:26.338Z,47
2019-04-26T07:47:04.449Z,47
2019-04-26T07:47:38.292Z,47
2019-04-26T07:48:15.195Z,47
2019-04-26T07:48:50.328Z,47
2019-04-26T07:49:26.323Z,47
2019-04-26T07:50:05.353Z,47
2019-04-26T07:50:38.239Z,46
2019-04-26T07:51:14.357Z,46
2019-04-26T07:51:50.305Z,46
2019-04-26T07:52:26.566Z,46
2019-04-26T07:53:05.266Z,46
2019-04-26T07:53:38.334Z,46
2019-04-26T07:54:14.299Z,46
2019-04-26T07:54:50.271Z,46
2019-04-26T07:55:26.259Z,46
2019-04-26T07:56:05.185Z,46
2019-04-26T07:56:38.298Z,46
2019-04-26T07:57:14.273Z,46
2019-04-26T07:57:50.290Z,46
2019-04-26T07:58:26.323Z,46
2019-04-26T07:59:08.434Z,46
2019-04-26T07:59:38.271Z,45
2019-04-26T08:00:15.367Z,45
2019-04-26T08:00:50.340Z,45
2019-04-26T08:01:26.290Z,45
2019-04-26T08:02:02.270Z,45
2019-04-26T08:02:38.232Z,45
2019-04-26T08:03:15.626Z,45
2019-04-26T08:03:50.278Z,45
2019-04-26T08:04:26.259Z,44
2019-04-26T08:05:07.162Z,45
2019-04-26T08:05:38.330Z,45
2019-04-26T08:06:14.290Z,44
2019-04-26T08:06:50.250Z,44
2019-04-26T08:07:26.364Z,45
2019-04-26T08:08:02.345Z,45
2019-04-26T08:08:38.304Z,44
2019-04-26T08:09:28.005Z,44
2019-04-26T08:10:00.479Z,44
2019-04-26T08:10:26.314Z,44
2019-04-26T08:11:04.338Z,44
2019-04-26T08:11:38.256Z,44
2019-04-26T08:12:14.694Z,44
2019-04-26T08:12:50.326Z,43
2019-04-26T08:13:26.274Z,43
2019-04-26T08:14:02.289Z,43
2019-04-26T08:14:38.339Z,43
2019-04-26T08:15:14.301Z,43
2019-04-26T08:15:50.282Z,43
2019-04-26T08:16:26.258Z,43
2019-04-26T08:17:02.342Z,42
2019-04-26T08:17:38.306Z,43
2019-04-26T08:18:15.495Z,43
2019-04-26T08:18:50.250Z,42
2019-04-26T08:19:26.354Z,42
2019-04-26T08:20:02.322Z,42
2019-04-26T08:20:38.281Z,42
2019-04-26T08:21:18.762Z,42
2019-04-26T08:21:50.324Z,42
2019-04-26T08:22:34.101Z,42
2019-04-26T08:23:21.645Z,43
2019-04-26T08:23:42.455Z,44
2019-04-26T08:24:14.542Z,44
2019-04-26T08:24:50.305Z,43
2019-04-26T08:25:26.267Z,43
2019-04-26T08:26:02.235Z,44
2019-04-26T08:26:38.344Z,44
2019-04-26T08:27:24.207Z,44
2019-04-26T08:28:26.247Z,45
2019-04-26T08:29:02.315Z,45
2019-04-26T08:29:38.298Z,45
2019-04-26T08:30:21.332Z,44
2019-04-26T08:31:27.990Z,45
2019-04-26T08:32:02.305Z,44
2019-04-26T08:32:38.252Z,44
2019-04-26T08:33:16.454Z,44
2019-04-26T08:33:50.450Z,44
2019-04-26T08:34:34.354Z,44
2019-04-26T08:35:15.241Z,44
2019-04-26T08:36:15.283Z,43
2019-04-26T08:36:50.291Z,43
2019-04-26T08:37:26.259Z,42
2019-04-26T08:38:02.213Z,42
2019-04-26T08:38:38.302Z,42
2019-04-26T08:39:14.285Z,41
2019-04-26T08:39:52.541Z,41
2019-04-26T08:40:31.825Z,40
2019-04-26T08:41:08.240Z,40
2019-04-26T08:41:40.544Z,40
2019-04-26T08:42:25.277Z,39
2019-04-26T08:42:58.732Z,40
2019-04-26T08:43:31.883Z,40